ADDS METAR Data INFO
IDs: Format: Raw Decoded Include TAF

Data at: 1041 UTC 19 Oct 2017

KRUG 191035Z AUTO 11007KT 10SM CLR 02/M02 A2979 RMK AO2
KRUG 191015Z AUTO 13008KT 10SM 02/M02 A2980 RMK AO2
KRUG 190955Z AUTO 12006KT 10SM 01/M02 A2981 RMK AO2
KRUG 190935Z AUTO 12007KT 10SM CLR 01/M02 A2982 RMK AO2
KRUG 190915Z AUTO 12008KT 10SM CLR 01/M02 A2983 RMK AO2
KRUG 190855Z AUTO 12005KT 10SM 02/M03 A2984 RMK AO2
KRUG 190835Z AUTO 14008KT 10SM 02/M02 A2984 RMK AO2
KRUG 190815Z AUTO 15006KT 10SM 02/M03 A2985 RMK AO2
KRUG 190755Z AUTO 14004KT 10SM 01/M03 A2985 RMK AO2
KRUG 190735Z AUTO 14004KT 10SM 01/M03 A2985 RMK AO2
KRUG 190715Z AUTO 17006KT 10SM 02/M04 A2986 RMK AO2
KRUG 190655Z AUTO 17004KT 10SM M00/M04 A2987 RMK AO2
KRUG 190635Z AUTO 18006KT 10SM 02/M04 A2986 RMK AO2
KRUG 190615Z AUTO 19006KT 10SM 01/M04 A2987 RMK AO2
KRUG 190555Z AUTO 19007KT 10SM 02/M04 A2987 RMK AO2
KRUG 190535Z AUTO 21006KT 10SM 02/M04 A2988 RMK AO2
KRUG 190515Z AUTO 21008KT 10SM CLR 01/M04 A2989 RMK AO2
KRUG 190455Z AUTO 00000KT 10SM M00/M05 A2988 RMK AO2
KRUG 190435Z AUTO 00000KT 10SM M00/M06 A2988 RMK AO2
KRUG 190415Z AUTO 00000KT 10SM 03/M04 A2988 RMK AO2
KRUG 190355Z AUTO 22007KT 10SM 04/M04 A2988 RMK AO2
KRUG 190335Z AUTO 22008KT 10SM 04/M05 A2988 RMK AO2
KRUG 190315Z AUTO 22007KT 10SM 05/M05 A2988 RMK AO2
KRUG 190255Z AUTO 23009KT 10SM 05/M05 A2988 RMK AO2
KRUG 190235Z AUTO 25008KT 10SM 05/M06 A2988 RMK AO2
KRUG 190215Z AUTO 25008KT 10SM CLR 05/M06 A2989 RMK AO2
KRUG 190155Z AUTO 23008KT 10SM CLR 06/M06 A2989 RMK AO2
KRUG 190135Z AUTO 24009KT 10SM CLR 07/M06 A2988 RMK AO2
KRUG 190115Z AUTO 25010KT 10SM 07/M06 A2988 RMK AO2
KRUG 190055Z AUTO 26011KT 10SM 08/M06 A2988 RMK AO2
KRUG 190035Z AUTO 25010KT 10SM CLR 08/M06 A2988 RMK AO2
KRUG 190015Z AUTO 26012KT 10SM CLR 09/M07 A2987 RMK AO2
KRUG 182355Z AUTO 26014KT 10SM CLR 10/M07 A2987 RMK AO2
KRUG 182335Z AUTO 27015G21KT 10SM CLR 11/M07 A2986 RMK AO2
KRUG 182315Z AUTO 28016G22KT 10SM CLR 11/M09 A2986 RMK AO2
KRUG 182255Z AUTO 29024KT 10SM CLR 12/M10 A2984 RMK AO2
KRUG 182235Z AUTO 28022G31KT 10SM CLR 13/M10 A2984 RMK AO2
KRUG 182215Z AUTO 28021G33KT 10SM CLR 13/M10 A2984 RMK AO2
KRUG 182155Z AUTO 28025G35KT 10SM CLR 13/M11 A2983 RMK AO2
KRUG 182135Z AUTO 28026G35KT 10SM CLR 13/M11 A2982 RMK AO2
KRUG 182115Z AUTO 28031G39KT 10SM CLR 13/M11 A2982 RMK AO2
KRUG 182055Z AUTO 29029G41KT 10SM CLR 13/M11 A2982 RMK AO2
KRUG 182035Z AUTO 28031G40KT 10SM CLR 13/M11 A2982 RMK AO2
KRUG 182015Z AUTO 28025G35KT 10SM CLR 13/M10 A2982 RMK AO2
KRUG 181955Z AUTO 28030G37KT 10SM CLR 13/M10 A2981 RMK AO2
KRUG 181935Z AUTO 29030G39KT 10SM CLR 13/M10 A2981 RMK AO2
KRUG 181915Z AUTO 29031G36KT 10SM CLR 13/M10 A2981 RMK AO2
KRUG 181855Z AUTO 28033G46KT 10SM CLR 12/M10 A2980 RMK AO2
KRUG 181835Z AUTO 30032G47KT 10SM CLR 12/M10 A2980 RMK AO2
KRUG 181815Z AUTO 28033G41KT 10SM CLR 12/M10 A2980 RMK AO2
KRUG 181755Z AUTO 29027G42KT 10SM CLR 12/M10 A2981 RMK AO2
KRUG 181735Z AUTO 29034G44KT 10SM CLR 12/M09 A2982 RMK AO2
KRUG 181715Z AUTO 29026G39KT 10SM CLR 11/M09 A2981 RMK AO2
KRUG 181655Z AUTO 28029G38KT 10SM CLR 11/M09 A2981 RMK AO2
KRUG 181635Z AUTO 28026G37KT 10SM CLR 11/M08 A2981 RMK AO2
KRUG 181615Z AUTO 28028G37KT 10SM CLR 10/M08 A2980 RMK AO2
KRUG 181555Z AUTO 29026G39KT 10SM CLR 10/M08 A2979 RMK AO2
KRUG 181535Z AUTO 28028G34KT 10SM CLR 09/M07 A2978 RMK AO2
KRUG 181515Z AUTO 28025G33KT 10SM CLR 09/M06 A2978 RMK AO2
KRUG 181455Z AUTO 27019G27KT 10SM CLR 08/M05 A2978 RMK AO2
KRUG 181435Z AUTO 27020G27KT 10SM CLR 08/M04 A2977 RMK AO2
KRUG 181415Z AUTO 27018G25KT 10SM CLR 07/M03 A2977 RMK AO2
KRUG 181355Z AUTO 27019KT 10SM CLR 07/M02 A2975 RMK AO2
KRUG 181335Z AUTO 27018G26KT 10SM CLR 07/M01 A2974 RMK AO2
KRUG 181315Z AUTO 27018G29KT 10SM CLR 08/M01 A2974 RMK AO2
KRUG 181255Z AUTO 28021G29KT 10SM CLR 08/M00 A2973 RMK AO2
KRUG 181235Z AUTO 28020G31KT 10SM 08/00 A2972 RMK AO2
KRUG 181215Z AUTO 28022G32KT 10SM 09/01 A2971 RMK AO2
KRUG 181155Z AUTO 29021G34KT 10SM CLR 10/01 A2970 RMK AO2
KRUG 181135Z AUTO 29027G32KT 10SM 10/02 A2968 RMK AO2
KRUG 181115Z AUTO 30021G35KT 10SM 10/02 A2967 RMK AO2
KRUG 181055Z AUTO 29026G39KT 10SM CLR 12/02 A2965 RMK AO2
KRUG 181035Z AUTO 29020G27KT 10SM FEW022 13/02 A2962 RMK AO2
KRUG 181015Z AUTO 28018G27KT 10SM FEW023 SCT029 SCT035 14/01 A2960 RMK AO2
KRUG 180955Z AUTO 29020G30KT 10SM FEW028 FEW034 SCT044 14/00 A2959 RMK AO2
KRUG 180935Z AUTO 30027G33KT 10SM 15/M01 A2957 RMK AO2
KRUG 180915Z AUTO 28015G21KT 8SM FEW024 BKN036 BKN042 16/M00 A2956 RMK AO2
KRUG 180855Z AUTO 29017G26KT 8SM BKN037 17/M01 A2955 RMK AO2
KRUG 180835Z AUTO 29023G33KT 10SM FEW034 SCT042 SCT050 18/M01 A2954 RMK AO2
KRUG 180815Z AUTO 27022G30KT 10SM FEW044 FEW050 17/M03 A2953 RMK AO2
KRUG 180755Z AUTO 24017G22KT 10SM CLR 17/M03 A2950 RMK AO2
KRUG 180735Z AUTO 23017G25KT 10SM CLR 17/M03 A2948 RMK AO2
KRUG 180715Z AUTO 22016G22KT 10SM CLR 15/M02 A2947 RMK AO2
KRUG 180655Z AUTO 21016G23KT 10SM CLR 16/M03 A2946 RMK AO2
KRUG 180635Z AUTO 21015G20KT 10SM CLR 16/M03 A2948 RMK AO2
KRUG 180615Z AUTO 20012KT 10SM CLR 15/M02 A2949 RMK AO2
KRUG 180555Z AUTO 20010G16KT 10SM CLR 15/M02 A2949 RMK AO2
KRUG 180535Z AUTO 20011G16KT 10SM CLR 14/M02 A2949 RMK AO2
KRUG 180515Z AUTO 20012G18KT 10SM CLR 14/M02 A2950 RMK AO2
KRUG 180455Z AUTO 20012KT 10SM CLR 14/M02 A2950 RMK AO2
KRUG 180435Z AUTO 20013G18KT 10SM 13/M02 A2951 RMK AO2
KRUG 180415Z AUTO 20013KT 10SM 13/M02 A2951 RMK AO2
KRUG 180355Z AUTO 20013KT 10SM 13/M01 A2952 RMK AO2
KRUG 180335Z AUTO 20012KT 10SM FEW047 13/M01 A2952 RMK AO2
KRUG 180315Z AUTO 20013KT 10SM SCT048 13/M01 A2953 RMK AO2
KRUG 180255Z AUTO 20012KT 10SM FEW048 14/M01 A2954 RMK AO2
KRUG 180235Z AUTO 19010KT 10SM 14/M00 A2955 RMK AO2
KRUG 180215Z AUTO 20009KT 10SM 14/00 A2956 RMK AO2
KRUG 180155Z AUTO 19008KT 10SM 14/00 A2956 RMK AO2
KRUG 180135Z AUTO 19008KT 10SM CLR 14/01 A2957 RMK AO2
KRUG 180115Z AUTO 19009KT 10SM CLR 15/01 A2958 RMK AO2
KRUG 180055Z AUTO 20011KT 10SM CLR 16/01 A2959 RMK AO2
KRUG 180035Z AUTO 20010KT 10SM 15/01 A2960 RMK AO2
KRUG 180015Z AUTO 20007G12KT 10SM CLR 17/01 A2960 RMK AO2
KRUG 172355Z AUTO 20010KT 9SM CLR 18/01 A2961 RMK AO2
KRUG 172335Z AUTO 21010KT 9SM CLR 19/01 A2961 RMK AO2
KRUG 172315Z AUTO 21008KT 9SM CLR 21/01 A2962 RMK AO2
KRUG 172255Z AUTO 22008KT 10SM CLR 22/00 A2963 RMK AO2